Putnm, Connecticut
Current Conditions -  °F | °C
As of 8:52 PM on Friday 28 Nov 2014 (Local Time) from KIJD Reporting Station
Clear Clear  
Wind Chill: 22°   Ceiling: Unl
Heat Index: 27°   Visibility: 10mi
Dew Point: 14°   Wind: 5mph
Humidity: 58%   Direction: NA
Pressure: 30.21"   Gusts: NA
Location:  41.91°N, 71.8739°W
Report Text: KIJD 290152Z AUTO VRB04KT 10SM CLR M03/M10 A3021 RMK AO2 SLP233 T10281100
Loading
Personal Weather Stations






























Interactive Weather Map New forecast layout! Learn more

10-Day Weather Forecast

Advertisements
Track Severe Weather on mobile